sensor_id;sensor_type;location;lat;lon;timestamp;P1;durP1;ratioP1;P2;durP2;ratioP2
34896;SDS011;43407;51.828;-2.298;2024-01-30T00:00:03;1.58;;;0.70;;
34896;SDS011;43407;51.828;-2.298;2024-01-30T00:02:29;2.67;;;0.80;;
34896;SDS011;43407;51.828;-2.298;2024-01-30T00:04:54;1.77;;;0.70;;
34896;SDS011;43407;51.828;-2.298;2024-01-30T00:07:20;2.83;;;0.80;;
34896;SDS011;43407;51.828;-2.298;2024-01-30T00:09:46;1.30;;;0.60;;
34896;SDS011;43407;51.828;-2.298;2024-01-30T00:12:11;0.88;;;0.57;;
34896;SDS011;43407;51.828;-2.298;2024-01-30T00:14:37;1.60;;;0.65;;
34896;SDS011;43407;51.828;-2.298;2024-01-30T00:17:02;1.33;;;0.60;;
34896;SDS011;43407;51.828;-2.298;2024-01-30T00:19:27;2.20;;;0.70;;
34896;SDS011;43407;51.828;-2.298;2024-01-30T00:21:53;1.40;;;0.63;;
34896;SDS011;43407;51.828;-2.298;2024-01-30T00:24:18;2.33;;;0.68;;
34896;SDS011;43407;51.828;-2.298;2024-01-30T00:26:43;2.70;;;0.60;;
34896;SDS011;43407;51.828;-2.298;2024-01-30T00:29:09;2.17;;;0.80;;
34896;SDS011;43407;51.828;-2.298;2024-01-30T00:31:34;2.72;;;0.80;;
34896;SDS011;43407;51.828;-2.298;2024-01-30T00:34:00;1.08;;;0.70;;
34896;SDS011;43407;51.828;-2.298;2024-01-30T00:36:25;2.28;;;0.90;;
34896;SDS011;43407;51.828;-2.298;2024-01-30T00:38:50;2.10;;;0.80;;
34896;SDS011;43407;51.828;-2.298;2024-01-30T00:41:17;1.30;;;0.90;;
34896;SDS011;43407;51.828;-2.298;2024-01-30T00:43:42;1.42;;;0.70;;
34896;SDS011;43407;51.828;-2.298;2024-01-30T00:46:08;1.70;;;0.52;;
34896;SDS011;43407;51.828;-2.298;2024-01-30T00:48:33;2.88;;;1.30;;
34896;SDS011;43407;51.828;-2.298;2024-01-30T00:50:58;0.95;;;0.80;;
34896;SDS011;43407;51.828;-2.298;2024-01-30T00:53:24;3.33;;;0.95;;
34896;SDS011;43407;51.828;-2.298;2024-01-30T00:55:49;1.98;;;0.95;;
34896;SDS011;43407;51.828;-2.298;2024-01-30T00:58:14;1.63;;;1.08;;
34896;SDS011;43407;51.828;-2.298;2024-01-30T01:00:40;1.58;;;1.00;;
34896;SDS011;43407;51.828;-2.298;2024-01-30T01:03:05;2.10;;;1.30;;
34896;SDS011;43407;51.828;-2.298;2024-01-30T01:05:30;1.80;;;1.00;;
34896;SDS011;43407;51.828;-2.298;2024-01-30T01:07:56;3.38;;;1.02;;
34896;SDS011;43407;51.828;-2.298;2024-01-30T01:10:21;2.55;;;1.25;;
34896;SDS011;43407;51.828;-2.298;2024-01-30T01:12:47;3.88;;;1.30;;
34896;SDS011;43407;51.828;-2.298;2024-01-30T01:15:13;2.22;;;1.20;;
34896;SDS011;43407;51.828;-2.298;2024-01-30T01:17:38;4.30;;;1.27;;
34896;SDS011;43407;51.828;-2.298;2024-01-30T01:20:04;3.70;;;1.80;;
34896;SDS011;43407;51.828;-2.298;2024-01-30T01:22:33;4.13;;;1.60;;
34896;SDS011;43407;51.828;-2.298;2024-01-30T01:24:59;2.50;;;1.42;;
34896;SDS011;43407;51.828;-2.298;2024-01-30T01:27:24;4.40;;;1.70;;
34896;SDS011;43407;51.828;-2.298;2024-01-30T01:29:50;2.45;;;1.40;;
34896;SDS011;43407;51.828;-2.298;2024-01-30T01:32:15;2.30;;;1.38;;
34896;SDS011;43407;51.828;-2.298;2024-01-30T01:34:41;2.60;;;1.42;;
34896;SDS011;43407;51.828;-2.298;2024-01-30T01:37:06;3.33;;;1.30;;
34896;SDS011;43407;51.828;-2.298;2024-01-30T01:39:32;2.13;;;1.63;;
34896;SDS011;43407;51.828;-2.298;2024-01-30T01:41:57;1.98;;;1.20;;
34896;SDS011;43407;51.828;-2.298;2024-01-30T01:44:23;1.38;;;0.70;;
34896;SDS011;43407;51.828;-2.298;2024-01-30T01:46:48;1.55;;;0.80;;
34896;SDS011;43407;51.828;-2.298;2024-01-30T01:49:13;1.08;;;0.73;;
34896;SDS011;43407;51.828;-2.298;2024-01-30T01:51:39;1.38;;;0.65;;
34896;SDS011;43407;51.828;-2.298;2024-01-30T01:54:06;1.38;;;0.63;;
34896;SDS011;43407;51.828;-2.298;2024-01-30T01:56:31;3.08;;;0.88;;
34896;SDS011;43407;51.828;-2.298;2024-01-30T01:58:59;2.35;;;1.42;;
34896;SDS011;43407;51.828;-2.298;2024-01-30T02:01:25;3.72;;;2.10;;
34896;SDS011;43407;51.828;-2.298;2024-01-30T02:03:52;5.20;;;2.20;;
34896;SDS011;43407;51.828;-2.298;2024-01-30T02:06:17;4.75;;;2.63;;
34896;SDS011;43407;51.828;-2.298;2024-01-30T02:08:43;5.75;;;2.72;;
34896;SDS011;43407;51.828;-2.298;2024-01-30T02:11:08;7.13;;;2.63;;
34896;SDS011;43407;51.828;-2.298;2024-01-30T02:13:35;6.20;;;2.80;;
34896;SDS011;43407;51.828;-2.298;2024-01-30T02:16:00;7.32;;;3.35;;
34896;SDS011;43407;51.828;-2.298;2024-01-30T02:18:26;9.40;;;4.60;;
34896;SDS011;43407;51.828;-2.298;2024-01-30T02:20:51;6.80;;;3.53;;
34896;SDS011;43407;51.828;-2.298;2024-01-30T02:23:19;6.07;;;3.08;;
34896;SDS011;43407;51.828;-2.298;2024-01-30T02:25:44;6.38;;;3.70;;
34896;SDS011;43407;51.828;-2.298;2024-01-30T02:28:13;7.80;;;4.28;;
34896;SDS011;43407;51.828;-2.298;2024-01-30T02:30:47;11.40;;;4.60;;
34896;SDS011;43407;51.828;-2.298;2024-01-30T02:33:13;11.40;;;5.63;;
34896;SDS011;43407;51.828;-2.298;2024-01-30T02:35:38;10.43;;;5.95;;
34896;SDS011;43407;51.828;-2.298;2024-01-30T02:38:04;8.43;;;5.68;;
34896;SDS011;43407;51.828;-2.298;2024-01-30T02:40:30;10.13;;;5.72;;
34896;SDS011;43407;51.828;-2.298;2024-01-30T02:42:55;8.48;;;5.28;;
34896;SDS011;43407;51.828;-2.298;2024-01-30T02:45:21;6.25;;;4.28;;
34896;SDS011;43407;51.828;-2.298;2024-01-30T02:47:46;10.98;;;4.75;;
34896;SDS011;43407;51.828;-2.298;2024-01-30T02:50:11;6.07;;;4.18;;
34896;SDS011;43407;51.828;-2.298;2024-01-30T02:52:37;7.10;;;3.85;;
34896;SDS011;43407;51.828;-2.298;2024-01-30T02:55:02;6.28;;;3.60;;
34896;SDS011;43407;51.828;-2.298;2024-01-30T02:57:28;5.00;;;3.33;;
34896;SDS011;43407;51.828;-2.298;2024-01-30T02:59:54;7.28;;;3.03;;
34896;SDS011;43407;51.828;-2.298;2024-01-30T03:02:19;3.85;;;2.70;;
34896;SDS011;43407;51.828;-2.298;2024-01-30T03:04:45;4.53;;;2.50;;
34896;SDS011;43407;51.828;-2.298;2024-01-30T03:07:10;3.03;;;2.10;;
34896;SDS011;43407;51.828;-2.298;2024-01-30T03:09:36;3.45;;;1.60;;
34896;SDS011;43407;51.828;-2.298;2024-01-30T03:12:01;2.90;;;1.40;;
34896;SDS011;43407;51.828;-2.298;2024-01-30T03:14:27;1.27;;;1.00;;
34896;SDS011;43407;51.828;-2.298;2024-01-30T03:16:52;1.70;;;0.90;;
34896;SDS011;43407;51.828;-2.298;2024-01-30T03:19:17;0.52;;;0.52;;
34896;SDS011;43407;51.828;-2.298;2024-01-30T03:21:43;0.50;;;0.50;;
34896;SDS011;43407;51.828;-2.298;2024-01-30T03:24:09;0.63;;;0.45;;
34896;SDS011;43407;51.828;-2.298;2024-01-30T03:26:34;0.63;;;0.38;;
34896;SDS011;43407;51.828;-2.298;2024-01-30T03:28:59;0.30;;;0.30;;
34896;SDS011;43407;51.828;-2.298;2024-01-30T03:31:25;0.30;;;0.30;;
34896;SDS011;43407;51.828;-2.298;2024-01-30T03:33:50;0.30;;;0.30;;
34896;SDS011;43407;51.828;-2.298;2024-01-30T03:36:15;0.20;;;0.20;;
34896;SDS011;43407;51.828;-2.298;2024-01-30T03:38:41;0.30;;;0.30;;
34896;SDS011;43407;51.828;-2.298;2024-01-30T03:41:09;0.30;;;0.30;;
34896;SDS011;43407;51.828;-2.298;2024-01-30T03:43:35;0.22;;;0.22;;
34896;SDS011;43407;51.828;-2.298;2024-01-30T03:46:01;0.30;;;0.30;;
34896;SDS011;43407;51.828;-2.298;2024-01-30T03:48:26;0.20;;;0.20;;
34896;SDS011;43407;51.828;-2.298;2024-01-30T03:50:51;0.20;;;0.20;;
34896;SDS011;43407;51.828;-2.298;2024-01-30T03:53:17;0.30;;;0.30;;
34896;SDS011;43407;51.828;-2.298;2024-01-30T03:55:42;0.20;;;0.20;;
34896;SDS011;43407;51.828;-2.298;2024-01-30T03:58:07;0.28;;;0.28;;
34896;SDS011;43407;51.828;-2.298;2024-01-30T04:00:33;0.20;;;0.20;;
34896;SDS011;43407;51.828;-2.298;2024-01-30T04:02:58;0.30;;;0.30;;
34896;SDS011;43407;51.828;-2.298;2024-01-30T04:05:23;0.60;;;0.25;;
34896;SDS011;43407;51.828;-2.298;2024-01-30T04:07:48;0.10;;;0.10;;
34896;SDS011;43407;51.828;-2.298;2024-01-30T04:10:14;0.20;;;0.20;;
34896;SDS011;43407;51.828;-2.298;2024-01-30T04:12:39;0.20;;;0.20;;
34896;SDS011;43407;51.828;-2.298;2024-01-30T04:15:04;0.38;;;0.17;;
34896;SDS011;43407;51.828;-2.298;2024-01-30T04:17:30;0.20;;;0.20;;
34896;SDS011;43407;51.828;-2.298;2024-01-30T04:19:55;0.28;;;0.28;;
34896;SDS011;43407;51.828;-2.298;2024-01-30T04:22:20;0.20;;;0.20;;
34896;SDS011;43407;51.828;-2.298;2024-01-30T04:24:46;0.22;;;0.22;;
34896;SDS011;43407;51.828;-2.298;2024-01-30T04:27:11;0.20;;;0.20;;
34896;SDS011;43407;51.828;-2.298;2024-01-30T04:29:36;0.20;;;0.20;;
34896;SDS011;43407;51.828;-2.298;2024-01-30T04:32:02;0.20;;;0.20;;
34896;SDS011;43407;51.828;-2.298;2024-01-30T04:34:27;0.40;;;0.40;;
34896;SDS011;43407;51.828;-2.298;2024-01-30T04:36:52;0.40;;;0.20;;
34896;SDS011;43407;51.828;-2.298;2024-01-30T04:39:18;0.22;;;0.22;;
34896;SDS011;43407;51.828;-2.298;2024-01-30T04:41:43;0.20;;;0.20;;
34896;SDS011;43407;51.828;-2.298;2024-01-30T04:44:08;0.32;;;0.32;;
34896;SDS011;43407;51.828;-2.298;2024-01-30T04:46:34;0.30;;;0.30;;
34896;SDS011;43407;51.828;-2.298;2024-01-30T04:48:59;0.30;;;0.30;;
34896;SDS011;43407;51.828;-2.298;2024-01-30T04:51:24;0.47;;;0.30;;
34896;SDS011;43407;51.828;-2.298;2024-01-30T04:53:50;0.30;;;0.30;;
34896;SDS011;43407;51.828;-2.298;2024-01-30T04:56:15;0.30;;;0.30;;
34896;SDS011;43407;51.828;-2.298;2024-01-30T04:58:40;0.30;;;0.30;;
34896;SDS011;43407;51.828;-2.298;2024-01-30T05:01:06;0.30;;;0.30;;
34896;SDS011;43407;51.828;-2.298;2024-01-30T05:03:34;0.30;;;0.30;;
34896;SDS011;43407;51.828;-2.298;2024-01-30T05:06:00;0.30;;;0.30;;
34896;SDS011;43407;51.828;-2.298;2024-01-30T05:08:25;0.30;;;0.30;;
34896;SDS011;43407;51.828;-2.298;2024-01-30T05:10:50;0.40;;;0.20;;
34896;SDS011;43407;51.828;-2.298;2024-01-30T05:13:16;0.30;;;0.30;;
34896;SDS011;43407;51.828;-2.298;2024-01-30T05:15:41;0.30;;;0.30;;
34896;SDS011;43407;51.828;-2.298;2024-01-30T05:18:06;0.63;;;0.28;;
34896;SDS011;43407;51.828;-2.298;2024-01-30T05:20:32;0.30;;;0.30;;
34896;SDS011;43407;51.828;-2.298;2024-01-30T05:22:57;0.40;;;0.30;;
34896;SDS011;43407;51.828;-2.298;2024-01-30T05:25:22;0.43;;;0.30;;
34896;SDS011;43407;51.828;-2.298;2024-01-30T05:27:48;0.25;;;0.20;;
34896;SDS011;43407;51.828;-2.298;2024-01-30T05:30:14;0.30;;;0.30;;
34896;SDS011;43407;51.828;-2.298;2024-01-30T05:32:39;0.20;;;0.20;;
34896;SDS011;43407;51.828;-2.298;2024-01-30T05:35:04;0.55;;;0.32;;
34896;SDS011;43407;51.828;-2.298;2024-01-30T05:37:30;0.30;;;0.20;;
34896;SDS011;43407;51.828;-2.298;2024-01-30T05:39:55;0.47;;;0.35;;
34896;SDS011;43407;51.828;-2.298;2024-01-30T05:42:21;0.30;;;0.30;;
34896;SDS011;43407;51.828;-2.298;2024-01-30T05:44:46;0.30;;;0.30;;
34896;SDS011;43407;51.828;-2.298;2024-01-30T05:47:11;0.35;;;0.30;;
34896;SDS011;43407;51.828;-2.298;2024-01-30T05:49:36;0.20;;;0.20;;
34896;SDS011;43407;51.828;-2.298;2024-01-30T05:52:03;0.20;;;0.20;;
34896;SDS011;43407;51.828;-2.298;2024-01-30T05:54:28;0.32;;;0.30;;
34896;SDS011;43407;51.828;-2.298;2024-01-30T05:56:54;0.20;;;0.20;;
34896;SDS011;43407;51.828;-2.298;2024-01-30T05:59:19;0.20;;;0.20;;
34896;SDS011;43407;51.828;-2.298;2024-01-30T06:01:45;0.30;;;0.30;;
34896;SDS011;43407;51.828;-2.298;2024-01-30T06:04:10;1.27;;;0.30;;
34896;SDS011;43407;51.828;-2.298;2024-01-30T06:06:36;0.20;;;0.20;;
34896;SDS011;43407;51.828;-2.298;2024-01-30T06:09:01;0.30;;;0.30;;
34896;SDS011;43407;51.828;-2.298;2024-01-30T06:11:26;0.50;;;0.40;;
34896;SDS011;43407;51.828;-2.298;2024-01-30T06:13:51;0.63;;;0.52;;
34896;SDS011;43407;51.828;-2.298;2024-01-30T06:16:17;0.22;;;0.22;;
34896;SDS011;43407;51.828;-2.298;2024-01-30T06:18:42;0.85;;;0.40;;
34896;SDS011;43407;51.828;-2.298;2024-01-30T06:21:08;0.60;;;0.40;;
34896;SDS011;43407;51.828;-2.298;2024-01-30T06:23:33;0.30;;;0.30;;
34896;SDS011;43407;51.828;-2.298;2024-01-30T06:25:58;0.30;;;0.30;;
34896;SDS011;43407;51.828;-2.298;2024-01-30T06:28:24;0.90;;;0.40;;
34896;SDS011;43407;51.828;-2.298;2024-01-30T06:30:49;1.27;;;0.30;;
34896;SDS011;43407;51.828;-2.298;2024-01-30T06:33:14;1.55;;;0.40;;
34896;SDS011;43407;51.828;-2.298;2024-01-30T06:35:40;0.70;;;0.32;;
34896;SDS011;43407;51.828;-2.298;2024-01-30T06:38:05;0.68;;;0.30;;
34896;SDS011;43407;51.828;-2.298;2024-01-30T06:40:31;0.35;;;0.35;;
34896;SDS011;43407;51.828;-2.298;2024-01-30T06:42:56;0.38;;;0.35;;
34896;SDS011;43407;51.828;-2.298;2024-01-30T06:45:22;0.50;;;0.32;;
34896;SDS011;43407;51.828;-2.298;2024-01-30T06:47:47;0.35;;;0.35;;
34896;SDS011;43407;51.828;-2.298;2024-01-30T06:50:12;0.30;;;0.30;;
34896;SDS011;43407;51.828;-2.298;2024-01-30T06:52:38;0.30;;;0.30;;
34896;SDS011;43407;51.828;-2.298;2024-01-30T06:55:03;0.38;;;0.38;;
34896;SDS011;43407;51.828;-2.298;2024-01-30T06:57:28;0.63;;;0.40;;
34896;SDS011;43407;51.828;-2.298;2024-01-30T06:59:55;1.55;;;0.50;;
34896;SDS011;43407;51.828;-2.298;2024-01-30T07:02:21;0.68;;;0.68;;
34896;SDS011;43407;51.828;-2.298;2024-01-30T07:04:46;0.47;;;0.47;;
34896;SDS011;43407;51.828;-2.298;2024-01-30T07:07:12;1.05;;;0.55;;
34896;SDS011;43407;51.828;-2.298;2024-01-30T07:09:38;1.48;;;0.57;;
34896;SDS011;43407;51.828;-2.298;2024-01-30T07:12:04;0.52;;;0.50;;
34896;SDS011;43407;51.828;-2.298;2024-01-30T07:14:29;0.73;;;0.45;;
34896;SDS011;43407;51.828;-2.298;2024-01-30T07:16:54;0.95;;;0.60;;
34896;SDS011;43407;51.828;-2.298;2024-01-30T07:19:20;0.73;;;0.50;;
34896;SDS011;43407;51.828;-2.298;2024-01-30T07:21:45;0.65;;;0.60;;
34896;SDS011;43407;51.828;-2.298;2024-01-30T07:24:11;0.40;;;0.40;;
34896;SDS011;43407;51.828;-2.298;2024-01-30T07:26:37;0.60;;;0.60;;
34896;SDS011;43407;51.828;-2.298;2024-01-30T07:29:02;0.52;;;0.52;;
34896;SDS011;43407;51.828;-2.298;2024-01-30T07:31:28;1.38;;;0.52;;
34896;SDS011;43407;51.828;-2.298;2024-01-30T07:33:53;0.95;;;0.60;;
34896;SDS011;43407;51.828;-2.298;2024-01-30T07:36:19;1.35;;;0.60;;
34896;SDS011;43407;51.828;-2.298;2024-01-30T07:38:45;0.68;;;0.40;;
34896;SDS011;43407;51.828;-2.298;2024-01-30T07:41:10;0.40;;;0.40;;
34896;SDS011;43407;51.828;-2.298;2024-01-30T07:43:35;0.90;;;0.50;;
34896;SDS011;43407;51.828;-2.298;2024-01-30T07:46:01;1.02;;;0.45;;
34896;SDS011;43407;51.828;-2.298;2024-01-30T07:48:27;0.45;;;0.40;;
34896;SDS011;43407;51.828;-2.298;2024-01-30T07:50:53;0.40;;;0.40;;
34896;SDS011;43407;51.828;-2.298;2024-01-30T07:53:18;1.77;;;0.77;;
34896;SDS011;43407;51.828;-2.298;2024-01-30T07:55:43;0.63;;;0.63;;
34896;SDS011;43407;51.828;-2.298;2024-01-30T07:58:11;2.08;;;0.50;;
34896;SDS011;43407;51.828;-2.298;2024-01-30T08:00:37;0.47;;;0.40;;
34896;SDS011;43407;51.828;-2.298;2024-01-30T08:03:02;0.93;;;0.47;;
34896;SDS011;43407;51.828;-2.298;2024-01-30T08:05:28;0.50;;;0.50;;
34896;SDS011;43407;51.828;-2.298;2024-01-30T08:07:53;0.40;;;0.40;;
34896;SDS011;43407;51.828;-2.298;2024-01-30T08:10:18;0.65;;;0.60;;
34896;SDS011;43407;51.828;-2.298;2024-01-30T08:12:44;0.50;;;0.50;;
34896;SDS011;43407;51.828;-2.298;2024-01-30T08:15:09;0.40;;;0.40;;
34896;SDS011;43407;51.828;-2.298;2024-01-30T08:17:35;0.57;;;0.50;;
34896;SDS011;43407;51.828;-2.298;2024-01-30T08:20:00;0.40;;;0.30;;
34896;SDS011;43407;51.828;-2.298;2024-01-30T08:22:25;0.43;;;0.40;;
34896;SDS011;43407;51.828;-2.298;2024-01-30T08:24:51;0.28;;;0.28;;
34896;SDS011;43407;51.828;-2.298;2024-01-30T08:27:16;0.38;;;0.38;;
34896;SDS011;43407;51.828;-2.298;2024-01-30T08:29:41;0.68;;;0.60;;
34896;SDS011;43407;51.828;-2.298;2024-01-30T08:32:07;2.83;;;0.70;;
34896;SDS011;43407;51.828;-2.298;2024-01-30T08:34:32;1.30;;;0.60;;
34896;SDS011;43407;51.828;-2.298;2024-01-30T08:36:58;0.60;;;0.50;;
34896;SDS011;43407;51.828;-2.298;2024-01-30T08:39:23;0.50;;;0.50;;
34896;SDS011;43407;51.828;-2.298;2024-01-30T08:41:50;0.40;;;0.32;;
34896;SDS011;43407;51.828;-2.298;2024-01-30T08:44:15;1.05;;;0.50;;
34896;SDS011;43407;51.828;-2.298;2024-01-30T08:46:40;0.98;;;0.50;;
34896;SDS011;43407;51.828;-2.298;2024-01-30T08:49:07;0.30;;;0.30;;
34896;SDS011;43407;51.828;-2.298;2024-01-30T08:51:33;0.40;;;0.40;;
34896;SDS011;43407;51.828;-2.298;2024-01-30T08:53:58;0.55;;;0.50;;
34896;SDS011;43407;51.828;-2.298;2024-01-30T08:56:24;0.40;;;0.40;;
34896;SDS011;43407;51.828;-2.298;2024-01-30T08:58:49;0.55;;;0.40;;
34896;SDS011;43407;51.828;-2.298;2024-01-30T09:01:15;0.73;;;0.50;;
34896;SDS011;43407;51.828;-2.298;2024-01-30T09:03:40;0.63;;;0.38;;
34896;SDS011;43407;51.828;-2.298;2024-01-30T09:06:11;0.40;;;0.40;;
34896;SDS011;43407;51.828;-2.298;2024-01-30T09:08:36;0.50;;;0.30;;
34896;SDS011;43407;51.828;-2.298;2024-01-30T09:11:08;0.55;;;0.40;;
34896;SDS011;43407;51.828;-2.298;2024-01-30T09:13:33;0.50;;;0.50;;
34896;SDS011;43407;51.828;-2.298;2024-01-30T09:15:58;0.60;;;0.40;;
34896;SDS011;43407;51.828;-2.298;2024-01-30T09:18:24;0.55;;;0.40;;
34896;SDS011;43407;51.828;-2.298;2024-01-30T09:20:49;0.32;;;0.30;;
34896;SDS011;43407;51.828;-2.298;2024-01-30T09:23:14;0.85;;;0.50;;
34896;SDS011;43407;51.828;-2.298;2024-01-30T09:25:40;0.55;;;0.40;;
34896;SDS011;43407;51.828;-2.298;2024-01-30T09:28:05;0.80;;;0.40;;
34896;SDS011;43407;51.828;-2.298;2024-01-30T09:30:30;0.40;;;0.40;;
34896;SDS011;43407;51.828;-2.298;2024-01-30T09:32:56;0.40;;;0.40;;
34896;SDS011;43407;51.828;-2.298;2024-01-30T09:35:21;0.68;;;0.40;;
34896;SDS011;43407;51.828;-2.298;2024-01-30T09:37:46;0.60;;;0.60;;
34896;SDS011;43407;51.828;-2.298;2024-01-30T09:40:13;0.40;;;0.40;;
34896;SDS011;43407;51.828;-2.298;2024-01-30T09:42:38;0.30;;;0.30;;
34896;SDS011;43407;51.828;-2.298;2024-01-30T09:45:05;1.05;;;0.50;;
34896;SDS011;43407;51.828;-2.298;2024-01-30T09:47:41;0.52;;;0.40;;
34896;SDS011;43407;51.828;-2.298;2024-01-30T09:50:13;0.60;;;0.40;;
34896;SDS011;43407;51.828;-2.298;2024-01-30T09:52:39;0.73;;;0.50;;
34896;SDS011;43407;51.828;-2.298;2024-01-30T09:55:06;2.00;;;0.70;;
34896;SDS011;43407;51.828;-2.298;2024-01-30T09:57:31;1.50;;;0.52;;
34896;SDS011;43407;51.828;-2.298;2024-01-30T09:59:57;0.47;;;0.47;;
34896;SDS011;43407;51.828;-2.298;2024-01-30T10:02:22;0.70;;;0.50;;
34896;SDS011;43407;51.828;-2.298;2024-01-30T10:04:48;1.05;;;0.40;;
34896;SDS011;43407;51.828;-2.298;2024-01-30T10:07:14;0.40;;;0.40;;
34896;SDS011;43407;51.828;-2.298;2024-01-30T10:09:40;0.50;;;0.50;;
34896;SDS011;43407;51.828;-2.298;2024-01-30T10:12:05;0.32;;;0.32;;
34896;SDS011;43407;51.828;-2.298;2024-01-30T10:14:31;0.30;;;0.30;;
34896;SDS011;43407;51.828;-2.298;2024-01-30T10:16:57;0.45;;;0.45;;
34896;SDS011;43407;51.828;-2.298;2024-01-30T10:19:22;0.45;;;0.45;;
34896;SDS011;43407;51.828;-2.298;2024-01-30T10:21:47;0.43;;;0.40;;
34896;SDS011;43407;51.828;-2.298;2024-01-30T10:24:13;0.30;;;0.30;;
34896;SDS011;43407;51.828;-2.298;2024-01-30T10:26:39;0.38;;;0.38;;
34896;SDS011;43407;51.828;-2.298;2024-01-30T10:29:04;0.47;;;0.40;;
34896;SDS011;43407;51.828;-2.298;2024-01-30T10:31:29;0.95;;;0.60;;
34896;SDS011;43407;51.828;-2.298;2024-01-30T10:33:55;0.60;;;0.55;;
34896;SDS011;43407;51.828;-2.298;2024-01-30T10:36:20;1.85;;;0.63;;
34896;SDS011;43407;51.828;-2.298;2024-01-30T10:38:50;0.70;;;0.70;;
34896;SDS011;43407;51.828;-2.298;2024-01-30T10:41:16;0.80;;;0.80;;
34896;SDS011;43407;51.828;-2.298;2024-01-30T10:43:44;0.50;;;0.50;;
34896;SDS011;43407;51.828;-2.298;2024-01-30T10:48:43;0.40;;;0.40;;
34896;SDS011;43407;51.828;-2.298;2024-01-30T10:51:12;0.68;;;0.63;;
34896;SDS011;43407;51.828;-2.298;2024-01-30T10:53:39;0.85;;;0.60;;
34896;SDS011;43407;51.828;-2.298;2024-01-30T10:56:04;0.57;;;0.57;;
34896;SDS011;43407;51.828;-2.298;2024-01-30T10:58:30;0.50;;;0.50;;
34896;SDS011;43407;51.828;-2.298;2024-01-30T11:00:56;0.40;;;0.40;;
34896;SDS011;43407;51.828;-2.298;2024-01-30T11:03:22;0.73;;;0.50;;
34896;SDS011;43407;51.828;-2.298;2024-01-30T11:05:51;0.57;;;0.52;;
34896;SDS011;43407;51.828;-2.298;2024-01-30T11:08:26;0.40;;;0.40;;
34896;SDS011;43407;51.828;-2.298;2024-01-30T11:10:56;0.55;;;0.55;;
34896;SDS011;43407;51.828;-2.298;2024-01-30T11:13:31;0.93;;;0.50;;
34896;SDS011;43407;51.828;-2.298;2024-01-30T11:16:06;0.43;;;0.43;;
34896;SDS011;43407;51.828;-2.298;2024-01-30T11:18:32;1.75;;;0.40;;
34896;SDS011;43407;51.828;-2.298;2024-01-30T11:21:01;0.60;;;0.60;;
34896;SDS011;43407;51.828;-2.298;2024-01-30T11:23:27;0.57;;;0.57;;
34896;SDS011;43407;51.828;-2.298;2024-01-30T11:25:53;0.50;;;0.50;;
34896;SDS011;43407;51.828;-2.298;2024-01-30T11:28:18;0.40;;;0.40;;
34896;SDS011;43407;51.828;-2.298;2024-01-30T11:30:45;0.60;;;0.60;;
34896;SDS011;43407;51.828;-2.298;2024-01-30T11:33:13;1.20;;;0.50;;
34896;SDS011;43407;51.828;-2.298;2024-01-30T11:35:42;0.50;;;0.50;;
34896;SDS011;43407;51.828;-2.298;2024-01-30T11:38:08;0.50;;;0.50;;
34896;SDS011;43407;51.828;-2.298;2024-01-30T11:40:34;0.30;;;0.30;;
34896;SDS011;43407;51.828;-2.298;2024-01-30T11:43:00;0.40;;;0.40;;
34896;SDS011;43407;51.828;-2.298;2024-01-30T11:45:26;0.43;;;0.43;;
34896;SDS011;43407;51.828;-2.298;2024-01-30T11:47:52;0.55;;;0.50;;
34896;SDS011;43407;51.828;-2.298;2024-01-30T11:50:17;0.60;;;0.55;;
34896;SDS011;43407;51.828;-2.298;2024-01-30T11:52:43;0.50;;;0.50;;
34896;SDS011;43407;51.828;-2.298;2024-01-30T11:55:09;0.50;;;0.50;;
34896;SDS011;43407;51.828;-2.298;2024-01-30T11:57:34;0.50;;;0.50;;
34896;SDS011;43407;51.828;-2.298;2024-01-30T12:00:04;0.65;;;0.50;;
34896;SDS011;43407;51.828;-2.298;2024-01-30T12:02:35;0.60;;;0.57;;
34896;SDS011;43407;51.828;-2.298;2024-01-30T12:05:03;1.30;;;0.50;;
34896;SDS011;43407;51.828;-2.298;2024-01-30T12:07:29;0.77;;;0.50;;
34896;SDS011;43407;51.828;-2.298;2024-01-30T12:09:54;0.38;;;0.38;;
34896;SDS011;43407;51.828;-2.298;2024-01-30T12:12:21;0.40;;;0.40;;
34896;SDS011;43407;51.828;-2.298;2024-01-30T12:14:47;0.35;;;0.35;;
34896;SDS011;43407;51.828;-2.298;2024-01-30T12:17:22;0.30;;;0.30;;
34896;SDS011;43407;51.828;-2.298;2024-01-30T12:19:47;0.38;;;0.38;;
34896;SDS011;43407;51.828;-2.298;2024-01-30T12:22:13;0.43;;;0.30;;
34896;SDS011;43407;51.828;-2.298;2024-01-30T12:24:38;0.40;;;0.40;;
34896;SDS011;43407;51.828;-2.298;2024-01-30T12:27:04;0.30;;;0.30;;
34896;SDS011;43407;51.828;-2.298;2024-01-30T12:29:31;0.40;;;0.40;;
34896;SDS011;43407;51.828;-2.298;2024-01-30T12:31:57;0.57;;;0.30;;
34896;SDS011;43407;51.828;-2.298;2024-01-30T12:34:22;0.30;;;0.30;;
34896;SDS011;43407;51.828;-2.298;2024-01-30T12:36:49;0.32;;;0.32;;
34896;SDS011;43407;51.828;-2.298;2024-01-30T12:39:15;0.73;;;0.40;;
34896;SDS011;43407;51.828;-2.298;2024-01-30T12:41:41;1.92;;;0.47;;
34896;SDS011;43407;51.828;-2.298;2024-01-30T12:44:07;0.75;;;0.40;;
34896;SDS011;43407;51.828;-2.298;2024-01-30T12:46:33;0.30;;;0.30;;
34896;SDS011;43407;51.828;-2.298;2024-01-30T12:48:59;0.73;;;0.50;;
34896;SDS011;43407;51.828;-2.298;2024-01-30T12:51:24;0.43;;;0.43;;
34896;SDS011;43407;51.828;-2.298;2024-01-30T12:53:49;0.50;;;0.50;;
34896;SDS011;43407;51.828;-2.298;2024-01-30T12:56:15;0.43;;;0.43;;
34896;SDS011;43407;51.828;-2.298;2024-01-30T12:58:40;0.55;;;0.55;;
34896;SDS011;43407;51.828;-2.298;2024-01-30T13:01:08;0.40;;;0.40;;
34896;SDS011;43407;51.828;-2.298;2024-01-30T13:03:33;1.00;;;0.60;;
34896;SDS011;43407;51.828;-2.298;2024-01-30T13:05:58;0.60;;;0.60;;
34896;SDS011;43407;51.828;-2.298;2024-01-30T13:08:23;0.50;;;0.50;;
34896;SDS011;43407;51.828;-2.298;2024-01-30T13:10:49;0.47;;;0.47;;
34896;SDS011;43407;51.828;-2.298;2024-01-30T13:13:14;0.65;;;0.55;;
34896;SDS011;43407;51.828;-2.298;2024-01-30T13:15:40;0.60;;;0.60;;
34896;SDS011;43407;51.828;-2.298;2024-01-30T13:18:05;0.85;;;0.70;;
34896;SDS011;43407;51.828;-2.298;2024-01-30T13:20:31;0.68;;;0.65;;
34896;SDS011;43407;51.828;-2.298;2024-01-30T13:22:56;0.75;;;0.60;;
34896;SDS011;43407;51.828;-2.298;2024-01-30T13:25:22;1.65;;;0.50;;
34896;SDS011;43407;51.828;-2.298;2024-01-30T13:27:47;0.40;;;0.40;;
34896;SDS011;43407;51.828;-2.298;2024-01-30T13:30:12;0.70;;;0.47;;
34896;SDS011;43407;51.828;-2.298;2024-01-30T13:32:39;0.70;;;0.50;;
34896;SDS011;43407;51.828;-2.298;2024-01-30T13:35:06;0.65;;;0.40;;
34896;SDS011;43407;51.828;-2.298;2024-01-30T13:37:31;0.50;;;0.30;;
34896;SDS011;43407;51.828;-2.298;2024-01-30T13:39:56;1.75;;;0.30;;
34896;SDS011;43407;51.828;-2.298;2024-01-30T13:42:22;0.30;;;0.30;;
34896;SDS011;43407;51.828;-2.298;2024-01-30T13:44:48;0.40;;;0.40;;
34896;SDS011;43407;51.828;-2.298;2024-01-30T13:47:13;0.22;;;0.22;;
34896;SDS011;43407;51.828;-2.298;2024-01-30T13:49:38;0.40;;;0.40;;
34896;SDS011;43407;51.828;-2.298;2024-01-30T13:52:04;0.40;;;0.40;;
34896;SDS011;43407;51.828;-2.298;2024-01-30T13:54:29;0.50;;;0.50;;
34896;SDS011;43407;51.828;-2.298;2024-01-30T13:56:55;0.30;;;0.30;;
34896;SDS011;43407;51.828;-2.298;2024-01-30T13:59:21;0.38;;;0.38;;
34896;SDS011;43407;51.828;-2.298;2024-01-30T14:01:49;0.93;;;0.50;;
34896;SDS011;43407;51.828;-2.298;2024-01-30T14:04:15;0.50;;;0.40;;
34896;SDS011;43407;51.828;-2.298;2024-01-30T14:06:40;0.73;;;0.50;;
34896;SDS011;43407;51.828;-2.298;2024-01-30T14:09:05;0.30;;;0.30;;
34896;SDS011;43407;51.828;-2.298;2024-01-30T14:11:31;0.40;;;0.40;;
34896;SDS011;43407;51.828;-2.298;2024-01-30T14:13:56;0.65;;;0.40;;
34896;SDS011;43407;51.828;-2.298;2024-01-30T14:16:22;0.52;;;0.47;;
34896;SDS011;43407;51.828;-2.298;2024-01-30T14:18:49;0.60;;;0.60;;
34896;SDS011;43407;51.828;-2.298;2024-01-30T14:21:14;0.93;;;0.47;;
34896;SDS011;43407;51.828;-2.298;2024-01-30T14:23:40;0.90;;;0.55;;
34896;SDS011;43407;51.828;-2.298;2024-01-30T14:26:05;0.40;;;0.40;;